sensor_id;sensor_type;location;lat;lon;timestamp;pressure;altitude;pressure_sealevel;temperature;humidity
51321;BME280;38732;49.556;6.286;2022-10-16T00:01:43;99299.63;;;17.18;100.00
51321;BME280;38732;49.556;6.286;2022-10-16T00:04:11;99308.38;;;17.15;100.00
51321;BME280;38732;49.556;6.286;2022-10-16T00:06:40;99312.16;;;17.05;100.00
51321;BME280;38732;49.556;6.286;2022-10-16T00:09:08;99311.66;;;17.22;100.00
51321;BME280;38732;49.556;6.286;2022-10-16T00:11:38;99303.75;;;17.25;100.00
51321;BME280;38732;49.556;6.286;2022-10-16T00:14:10;99307.06;;;16.36;100.00
51321;BME280;38732;49.556;6.286;2022-10-16T00:16:39;99303.75;;;16.95;100.00
51321;BME280;38732;49.556;6.286;2022-10-16T00:19:09;99310.78;;;17.23;100.00
51321;BME280;38732;49.556;6.286;2022-10-16T00:21:38;99325.28;;;17.32;100.00
51321;BME280;38732;49.556;6.286;2022-10-16T00:24:08;99321.22;;;17.51;100.00
51321;BME280;38732;49.556;6.286;2022-10-16T00:26:38;99322.75;;;17.58;100.00
51321;BME280;38732;49.556;6.286;2022-10-16T00:29:07;99318.13;;;17.66;100.00
51321;BME280;38732;49.556;6.286;2022-10-16T00:31:36;99329.38;;;17.68;100.00
51321;BME280;38732;49.556;6.286;2022-10-16T00:34:04;99356.34;;;16.80;100.00
51321;BME280;38732;49.556;6.286;2022-10-16T00:36:32;99342.97;;;17.22;100.00
51321;BME280;38732;49.556;6.286;2022-10-16T00:39:01;99336.72;;;17.57;100.00
51321;BME280;38732;49.556;6.286;2022-10-16T00:41:30;99322.28;;;17.72;100.00
51321;BME280;38732;49.556;6.286;2022-10-16T00:44:00;99331.53;;;17.26;100.00
51321;BME280;38732;49.556;6.286;2022-10-16T00:46:39;99333.66;;;17.13;100.00
51321;BME280;38732;49.556;6.286;2022-10-16T00:49:13;99330.22;;;17.41;100.00
51321;BME280;38732;49.556;6.286;2022-10-16T00:51:50;99325.25;;;17.03;100.00
51321;BME280;38732;49.556;6.286;2022-10-16T00:54:23;99307.31;;;17.22;100.00
51321;BME280;38732;49.556;6.286;2022-10-16T00:56:53;99328.63;;;16.42;100.00
51321;BME280;38732;49.556;6.286;2022-10-16T00:59:27;99328.25;;;17.19;100.00
51321;BME280;38732;49.556;6.286;2022-10-16T01:01:57;99323.88;;;17.50;100.00
51321;BME280;38732;49.556;6.286;2022-10-16T01:04:26;99331.56;;;17.54;100.00
51321;BME280;38732;49.556;6.286;2022-10-16T01:07:14;99322.38;;;17.42;100.00
51321;BME280;38732;49.556;6.286;2022-10-16T01:12:36;99339.16;;;17.62;100.00
51321;BME280;38732;49.556;6.286;2022-10-16T01:15:27;99333.22;;;17.57;100.00
51321;BME280;38732;49.556;6.286;2022-10-16T01:20:51;99333.63;;;17.73;100.00
51321;BME280;38732;49.556;6.286;2022-10-16T01:23:27;99336.97;;;17.76;100.00
51321;BME280;38732;49.556;6.286;2022-10-16T01:31:18;99337.94;;;17.74;100.00
51321;BME280;38732;49.556;6.286;2022-10-16T01:33:53;99336.13;;;17.76;100.00
51321;BME280;38732;49.556;6.286;2022-10-16T01:36:35;99330.81;;;17.80;100.00
51321;BME280;38732;49.556;6.286;2022-10-16T01:39:06;99349.09;;;17.79;100.00
51321;BME280;38732;49.556;6.286;2022-10-16T01:41:40;99349.09;;;17.79;100.00
51321;BME280;38732;49.556;6.286;2022-10-16T01:44:18;99346.38;;;17.83;100.00
51321;BME280;38732;49.556;6.286;2022-10-16T01:46:50;99359.47;;;17.82;100.00
51321;BME280;38732;49.556;6.286;2022-10-16T01:49:22;99356.78;;;17.85;100.00
51321;BME280;38732;49.556;6.286;2022-10-16T01:51:56;99359.28;;;17.88;100.00
51321;BME280;38732;49.556;6.286;2022-10-16T01:54:27;99356.06;;;17.80;100.00
51321;BME280;38732;49.556;6.286;2022-10-16T01:56:59;99361.47;;;17.44;100.00
51321;BME280;38732;49.556;6.286;2022-10-16T01:59:31;99360.47;;;17.48;100.00
51321;BME280;38732;49.556;6.286;2022-10-16T02:02:05;99355.31;;;17.75;100.00
51321;BME280;38732;49.556;6.286;2022-10-16T02:04:39;99343.97;;;17.76;100.00
51321;BME280;38732;49.556;6.286;2022-10-16T02:07:10;99352.72;;;17.75;100.00
51321;BME280;38732;49.556;6.286;2022-10-16T02:09:39;99358.81;;;17.74;100.00
51321;BME280;38732;49.556;6.286;2022-10-16T02:12:19;99362.13;;;17.80;100.00
51321;BME280;38732;49.556;6.286;2022-10-16T02:14:50;99359.75;;;17.73;100.00
51321;BME280;38732;49.556;6.286;2022-10-16T02:17:20;99348.63;;;17.66;100.00
51321;BME280;38732;49.556;6.286;2022-10-16T02:19:51;99357.06;;;17.74;100.00
51321;BME280;38732;49.556;6.286;2022-10-16T02:22:32;99357.03;;;17.76;100.00
51321;BME280;38732;49.556;6.286;2022-10-16T02:27:50;99345.97;;;17.67;100.00
51321;BME280;38732;49.556;6.286;2022-10-16T02:30:29;99344.78;;;17.78;100.00
51321;BME280;38732;49.556;6.286;2022-10-16T02:33:02;99344.81;;;17.76;100.00
51321;BME280;38732;49.556;6.286;2022-10-16T02:35:33;99355.31;;;17.75;100.00
51321;BME280;38732;49.556;6.286;2022-10-16T02:38:03;99367.59;;;17.43;100.00
51321;BME280;38732;49.556;6.286;2022-10-16T02:40:31;99359.78;;;17.71;100.00
51321;BME280;38732;49.556;6.286;2022-10-16T02:43:03;99344.59;;;17.56;100.00
51321;BME280;38732;49.556;6.286;2022-10-16T02:45:32;99350.19;;;17.42;100.00
51321;BME280;38732;49.556;6.286;2022-10-16T02:48:00;99354.28;;;17.22;100.00
51321;BME280;38732;49.556;6.286;2022-10-16T02:50:29;99346.88;;;17.37;100.00
51321;BME280;38732;49.556;6.286;2022-10-16T02:52:57;99341.88;;;17.29;100.00
51321;BME280;38732;49.556;6.286;2022-10-16T02:55:25;99350.06;;;17.17;100.00
51321;BME280;38732;49.556;6.286;2022-10-16T02:57:54;99367.66;;;16.79;100.00
51321;BME280;38732;49.556;6.286;2022-10-16T03:00:22;99364.38;;;17.35;100.00
51321;BME280;38732;49.556;6.286;2022-10-16T03:02:50;99362.88;;;17.54;100.00
51321;BME280;38732;49.556;6.286;2022-10-16T03:05:19;99374.84;;;17.02;100.00
51321;BME280;38732;49.556;6.286;2022-10-16T03:07:47;99374.94;;;15.94;100.00
51321;BME280;38732;49.556;6.286;2022-10-16T03:10:15;99363.22;;;17.14;100.00
51321;BME280;38732;49.556;6.286;2022-10-16T03:12:43;99359.66;;;17.46;100.00
51321;BME280;38732;49.556;6.286;2022-10-16T03:15:12;99358.94;;;17.71;100.00
51321;BME280;38732;49.556;6.286;2022-10-16T03:17:40;99371.19;;;17.67;100.00
51321;BME280;38732;49.556;6.286;2022-10-16T03:20:08;99373.44;;;17.81;100.00
51321;BME280;38732;49.556;6.286;2022-10-16T03:22:37;99357.84;;;17.78;100.00
51321;BME280;38732;49.556;6.286;2022-10-16T03:25:05;99360.16;;;17.87;100.00
51321;BME280;38732;49.556;6.286;2022-10-16T03:27:34;99361.91;;;17.88;100.00
51321;BME280;38732;49.556;6.286;2022-10-16T03:30:02;99355.75;;;17.89;100.00
51321;BME280;38732;49.556;6.286;2022-10-16T03:32:31;99363.44;;;17.94;100.00
51321;BME280;38732;49.556;6.286;2022-10-16T03:34:59;99365.03;;;17.69;100.00
51321;BME280;38732;49.556;6.286;2022-10-16T03:37:27;99368.69;;;17.94;100.00
51321;BME280;38732;49.556;6.286;2022-10-16T03:39:55;99366.78;;;17.99;100.00
51321;BME280;38732;49.556;6.286;2022-10-16T03:42:24;99366.06;;;17.94;100.00
51321;BME280;38732;49.556;6.286;2022-10-16T03:44:52;99386.97;;;17.94;100.00
51321;BME280;38732;49.556;6.286;2022-10-16T03:47:20;99374.19;;;17.84;100.00
51321;BME280;38732;49.556;6.286;2022-10-16T03:49:49;99381.78;;;17.92;100.00
51321;BME280;38732;49.556;6.286;2022-10-16T03:52:17;99375.31;;;18.04;100.00
51321;BME280;38732;49.556;6.286;2022-10-16T03:54:46;99378.00;;;18.02;100.00
51321;BME280;38732;49.556;6.286;2022-10-16T03:57:17;99370.16;;;18.02;100.00
51321;BME280;38732;49.556;6.286;2022-10-16T03:59:45;99361.41;;;18.03;100.00
51321;BME280;38732;49.556;6.286;2022-10-16T04:02:14;99371.16;;;17.98;100.00
51321;BME280;38732;49.556;6.286;2022-10-16T04:04:42;99375.19;;;18.08;100.00
51321;BME280;38732;49.556;6.286;2022-10-16T04:07:10;99370.41;;;17.95;100.00
51321;BME280;38732;49.556;6.286;2022-10-16T04:09:38;99373.63;;;18.03;100.00
51321;BME280;38732;49.556;6.286;2022-10-16T04:12:07;99375.53;;;17.98;100.00
51321;BME280;38732;49.556;6.286;2022-10-16T04:14:35;99378.84;;;18.03;100.00
51321;BME280;38732;49.556;6.286;2022-10-16T04:17:03;99378.84;;;18.03;100.00
51321;BME280;38732;49.556;6.286;2022-10-16T04:19:31;99377.94;;;17.74;100.00
51321;BME280;38732;49.556;6.286;2022-10-16T04:22:00;99388.63;;;17.96;100.00
51321;BME280;38732;49.556;6.286;2022-10-16T04:24:28;99382.34;;;18.02;100.00
51321;BME280;38732;49.556;6.286;2022-10-16T04:26:56;99383.97;;;18.06;100.00
51321;BME280;38732;49.556;6.286;2022-10-16T04:29:24;99397.16;;;18.01;100.00
51321;BME280;38732;49.556;6.286;2022-10-16T04:31:52;99385.72;;;18.05;100.00
51321;BME280;38732;49.556;6.286;2022-10-16T04:34:21;99391.81;;;18.06;100.00
51321;BME280;38732;49.556;6.286;2022-10-16T04:36:49;99390.97;;;18.05;100.00
51321;BME280;38732;49.556;6.286;2022-10-16T04:39:17;99397.25;;;18.00;100.00
51321;BME280;38732;49.556;6.286;2022-10-16T04:41:46;99401.50;;;18.02;100.00
51321;BME280;38732;49.556;6.286;2022-10-16T04:44:14;99400.34;;;18.11;100.00
51321;BME280;38732;49.556;6.286;2022-10-16T04:46:42;99403.09;;;18.06;100.00
51321;BME280;38732;49.556;6.286;2022-10-16T04:49:10;99409.19;;;18.07;100.00
51321;BME280;38732;49.556;6.286;2022-10-16T04:51:39;99404.03;;;18.05;100.00
51321;BME280;38732;49.556;6.286;2022-10-16T04:54:08;99409.25;;;18.05;100.00
51321;BME280;38732;49.556;6.286;2022-10-16T04:56:37;99419.44;;;18.13;100.00
51321;BME280;38732;49.556;6.286;2022-10-16T04:59:05;99416.41;;;17.99;100.00
51321;BME280;38732;49.556;6.286;2022-10-16T05:01:33;99415.47;;;18.01;100.00
51321;BME280;38732;49.556;6.286;2022-10-16T05:04:01;99418.19;;;17.98;100.00
51321;BME280;38732;49.556;6.286;2022-10-16T05:06:30;99410.50;;;17.92;100.00
51321;BME280;38732;49.556;6.286;2022-10-16T05:08:58;99405.34;;;17.91;100.00
51321;BME280;38732;49.556;6.286;2022-10-16T05:11:26;99411.25;;;17.97;100.00
51321;BME280;38732;49.556;6.286;2022-10-16T05:13:54;99427.31;;;17.85;100.00
51321;BME280;38732;49.556;6.286;2022-10-16T05:16:23;99424.63;;;17.86;100.00
51321;BME280;38732;49.556;6.286;2022-10-16T05:18:51;99419.28;;;17.89;100.00
51321;BME280;38732;49.556;6.286;2022-10-16T05:21:20;99413.19;;;17.91;100.00
51321;BME280;38732;49.556;6.286;2022-10-16T05:23:48;99423.81;;;17.84;100.00
51321;BME280;38732;49.556;6.286;2022-10-16T05:26:16;99419.09;;;17.97;100.00
51321;BME280;38732;49.556;6.286;2022-10-16T05:28:45;99423.88;;;17.83;100.00
51321;BME280;38732;49.556;6.286;2022-10-16T05:31:13;99426.53;;;17.81;100.00
51321;BME280;38732;49.556;6.286;2022-10-16T05:33:41;99419.50;;;17.83;100.00
51321;BME280;38732;49.556;6.286;2022-10-16T05:36:10;99427.44;;;17.80;100.00
51321;BME280;38732;49.556;6.286;2022-10-16T05:38:38;99438.41;;;17.92;100.00
51321;BME280;38732;49.556;6.286;2022-10-16T05:41:06;99439.31;;;17.91;100.00
51321;BME280;38732;49.556;6.286;2022-10-16T05:43:35;99440.19;;;17.89;100.00
51321;BME280;38732;49.556;6.286;2022-10-16T05:46:04;99435.16;;;17.83;100.00
51321;BME280;38732;49.556;6.286;2022-10-16T05:48:33;99434.25;;;17.84;100.00
51321;BME280;38732;49.556;6.286;2022-10-16T05:51:03;99437.69;;;17.86;100.00
51321;BME280;38732;49.556;6.286;2022-10-16T05:53:34;99437.75;;;17.85;100.00
51321;BME280;38732;49.556;6.286;2022-10-16T05:56:04;99450.72;;;17.88;100.00
51321;BME280;38732;49.556;6.286;2022-10-16T05:58:34;99440.00;;;17.97;100.00
51321;BME280;38732;49.556;6.286;2022-10-16T06:01:05;99429.91;;;17.85;100.00
51321;BME280;38732;49.556;6.286;2022-10-16T06:03:34;99436.63;;;17.92;100.00
51321;BME280;38732;49.556;6.286;2022-10-16T06:06:17;99439.13;;;17.97;100.00
51321;BME280;38732;49.556;6.286;2022-10-16T06:08:47;99449.69;;;17.92;100.00
51321;BME280;38732;49.556;6.286;2022-10-16T06:11:20;99451.47;;;17.92;100.00
51321;BME280;38732;49.556;6.286;2022-10-16T06:13:50;99460.00;;;17.97;100.00
51321;BME280;38732;49.556;6.286;2022-10-16T06:16:19;99456.56;;;17.96;100.00
51321;BME280;38732;49.556;6.286;2022-10-16T06:18:50;99457.41;;;17.97;100.00
51321;BME280;38732;49.556;6.286;2022-10-16T06:21:21;99463.44;;;17.99;100.00
51321;BME280;38732;49.556;6.286;2022-10-16T06:23:49;99460.91;;;17.97;100.00
51321;BME280;38732;49.556;6.286;2022-10-16T06:26:20;99463.66;;;17.91;100.00
51321;BME280;38732;49.556;6.286;2022-10-16T06:28:49;99470.59;;;17.92;100.00
51321;BME280;38732;49.556;6.286;2022-10-16T06:31:17;99483.59;;;17.95;100.00
51321;BME280;38732;49.556;6.286;2022-10-16T06:33:50;99472.84;;;18.04;100.00
51321;BME280;38732;49.556;6.286;2022-10-16T06:36:19;99479.91;;;18.02;100.00
51321;BME280;38732;49.556;6.286;2022-10-16T06:38:48;99477.13;;;18.07;100.00
51321;BME280;38732;49.556;6.286;2022-10-16T06:41:20;99477.19;;;18.05;100.00
51321;BME280;38732;49.556;6.286;2022-10-16T06:43:49;99474.59;;;18.04;100.00
51321;BME280;38732;49.556;6.286;2022-10-16T06:46:20;99474.59;;;18.04;100.00
51321;BME280;38732;49.556;6.286;2022-10-16T06:48:49;99487.66;;;18.04;100.00
51321;BME280;38732;49.556;6.286;2022-10-16T06:51:20;99488.50;;;18.04;100.00
51321;BME280;38732;49.556;6.286;2022-10-16T06:53:50;99496.22;;;18.09;100.00
51321;BME280;38732;49.556;6.286;2022-10-16T06:56:24;99501.50;;;18.07;100.00
51321;BME280;38732;49.556;6.286;2022-10-16T06:58:53;99503.13;;;18.11;100.00
51321;BME280;38732;49.556;6.286;2022-10-16T07:01:23;99504.78;;;18.14;100.00
51321;BME280;38732;49.556;6.286;2022-10-16T07:03:52;99516.13;;;18.15;100.00
51321;BME280;38732;49.556;6.286;2022-10-16T07:06:22;99525.31;;;18.26;100.00
51321;BME280;38732;49.556;6.286;2022-10-16T07:08:51;99526.97;;;18.29;100.00
51321;BME280;38732;49.556;6.286;2022-10-16T07:11:21;99533.06;;;18.29;100.00
51321;BME280;38732;49.556;6.286;2022-10-16T07:13:51;99531.94;;;18.38;100.00
51321;BME280;38732;49.556;6.286;2022-10-16T07:16:21;99540.69;;;18.37;100.00
51321;BME280;38732;49.556;6.286;2022-10-16T07:18:50;99547.72;;;18.35;100.00
51321;BME280;38732;49.556;6.286;2022-10-16T07:21:19;99554.41;;;18.44;100.00
51321;BME280;38732;49.556;6.286;2022-10-16T07:23:59;99556.03;;;18.48;100.00
51321;BME280;38732;49.556;6.286;2022-10-16T07:26:29;99563.06;;;18.46;100.00
51321;BME280;38732;49.556;6.286;2022-10-16T07:28:58;99566.66;;;18.42;100.00
51321;BME280;38732;49.556;6.286;2022-10-16T07:31:26;99572.22;;;18.59;100.00
51321;BME280;38732;49.556;6.286;2022-10-16T07:33:55;99575.00;;;18.54;100.00
51321;BME280;38732;49.556;6.286;2022-10-16T07:36:25;99575.16;;;18.50;100.00
51321;BME280;38732;49.556;6.286;2022-10-16T07:38:53;99567.09;;;18.56;100.00
51321;BME280;38732;49.556;6.286;2022-10-16T07:41:22;99579.94;;;18.64;100.00
51321;BME280;38732;49.556;6.286;2022-10-16T07:43:53;99582.78;;;18.56;100.00
51321;BME280;38732;49.556;6.286;2022-10-16T07:46:22;99582.75;;;18.58;100.00
51321;BME280;38732;49.556;6.286;2022-10-16T07:48:51;99591.31;;;18.63;100.00
51321;BME280;38732;49.556;6.286;2022-10-16T07:51:21;99597.44;;;18.62;100.00
51321;BME280;38732;49.556;6.286;2022-10-16T07:53:50;99598.50;;;18.56;100.00
51321;BME280;38732;49.556;6.286;2022-10-16T07:56:19;99600.94;;;18.62;100.00
51321;BME280;38732;49.556;6.286;2022-10-16T07:58:47;99601.81;;;18.61;100.00
51321;BME280;38732;49.556;6.286;2022-10-16T08:01:17;99602.59;;;18.65;100.00
51321;BME280;38732;49.556;6.286;2022-10-16T08:03:48;99611.56;;;18.56;100.00
51321;BME280;38732;49.556;6.286;2022-10-16T08:06:18;99613.94;;;18.64;100.00
51321;BME280;38732;49.556;6.286;2022-10-16T08:08:47;99624.63;;;18.56;100.00
51321;BME280;38732;49.556;6.286;2022-10-16T08:11:15;99627.13;;;18.61;100.00
51321;BME280;38732;49.556;6.286;2022-10-16T08:13:44;99625.47;;;18.58;100.00
51321;BME280;38732;49.556;6.286;2022-10-16T08:16:12;99619.00;;;18.70;100.00
51321;BME280;38732;49.556;6.286;2022-10-16T08:18:40;99632.34;;;18.61;100.00
51321;BME280;38732;49.556;6.286;2022-10-16T08:21:13;99622.41;;;18.72;100.00
51321;BME280;38732;49.556;6.286;2022-10-16T08:23:42;99625.31;;;18.63;100.00
51321;BME280;38732;49.556;6.286;2022-10-16T08:26:11;99629.84;;;18.58;100.00
51321;BME280;38732;49.556;6.286;2022-10-16T08:28:40;99626.78;;;18.71;100.00
51321;BME280;38732;49.556;6.286;2022-10-16T08:31:12;99638.03;;;18.75;100.00
51321;BME280;38732;49.556;6.286;2022-10-16T08:33:43;99639.75;;;18.76;100.00
51321;BME280;38732;49.556;6.286;2022-10-16T08:36:12;99643.94;;;18.82;100.00
51321;BME280;38732;49.556;6.286;2022-10-16T08:38:40;99650.84;;;18.84;100.00
51321;BME280;38732;49.556;6.286;2022-10-16T08:46:54;99661.84;;;18.95;100.00
51321;BME280;38732;49.556;6.286;2022-10-16T08:49:24;99661.69;;;19.00;100.00
51321;BME280;38732;49.556;6.286;2022-10-16T08:51:53;99665.97;;;19.03;100.00
51321;BME280;38732;49.556;6.286;2022-10-16T08:54:37;99659.44;;;19.16;100.00
51321;BME280;38732;49.556;6.286;2022-10-16T08:57:14;99665.50;;;19.18;100.00
51321;BME280;38732;49.556;6.286;2022-10-16T08:59:42;99667.19;;;19.19;100.00
51321;BME280;38732;49.556;6.286;2022-10-16T09:02:26;99663.94;;;19.12;100.00
51321;BME280;38732;49.556;6.286;2022-10-16T09:05:17;99666.06;;;19.28;100.00
51321;BME280;38732;49.556;6.286;2022-10-16T09:10:54;99676.97;;;19.40;100.00
51321;BME280;38732;49.556;6.286;2022-10-16T09:13:32;99683.84;;;19.45;100.00
51321;BME280;38732;49.556;6.286;2022-10-16T09:16:30;99694.13;;;19.49;100.00
51321;BME280;38732;49.556;6.286;2022-10-16T09:19:09;99690.97;;;19.66;100.00
51321;BME280;38732;49.556;6.286;2022-10-16T09:21:44;99695.34;;;19.67;100.00
51321;BME280;38732;49.556;6.286;2022-10-16T09:24:16;99694.63;;;19.62;99.18
51321;BME280;38732;49.556;6.286;2022-10-16T09:26:46;99691.69;;;19.71;98.78
51321;BME280;38732;49.556;6.286;2022-10-16T09:29:16;99681.50;;;19.89;97.11
51321;BME280;38732;49.556;6.286;2022-10-16T09:31:44;99677.47;;;20.03;97.02
51321;BME280;38732;49.556;6.286;2022-10-16T09:34:32;99677.09;;;20.14;98.22
51321;BME280;38732;49.556;6.286;2022-10-16T09:37:10;99669.34;;;20.11;93.06
51321;BME280;38732;49.556;6.286;2022-10-16T09:39:51;99668.72;;;20.28;95.25
51321;BME280;38732;49.556;6.286;2022-10-16T09:42:23;99663.31;;;20.33;95.61
51321;BME280;38732;49.556;6.286;2022-10-16T09:44:56;99666.47;;;20.42;94.57
51321;BME280;38732;49.556;6.286;2022-10-16T09:47:29;99672.69;;;20.63;94.49
51321;BME280;38732;49.556;6.286;2022-10-16T09:50:05;99666.16;;;20.74;93.47
51321;BME280;38732;49.556;6.286;2022-10-16T09:52:47;99661.38;;;20.85;94.46
51321;BME280;38732;49.556;6.286;2022-10-16T09:55:17;99665.53;;;20.90;90.70
51321;BME280;38732;49.556;6.286;2022-10-16T09:57:53;99668.09;;;20.92;91.31
51321;BME280;38732;49.556;6.286;2022-10-16T10:00:23;99663.25;;;21.03;91.11
51321;BME280;38732;49.556;6.286;2022-10-16T10:02:53;99668.50;;;21.03;91.94
51321;BME280;38732;49.556;6.286;2022-10-16T10:05:27;99665.66;;;20.87;90.21
51321;BME280;38732;49.556;6.286;2022-10-16T10:08:02;99677.25;;;20.82;91.03
51321;BME280;38732;49.556;6.286;2022-10-16T10:10:32;99683.34;;;20.82;90.88
51321;BME280;38732;49.556;6.286;2022-10-16T10:13:01;99680.94;;;20.76;91.76
51321;BME280;38732;49.556;6.286;2022-10-16T10:15:34;99685.75;;;20.65;92.50
51321;BME280;38732;49.556;6.286;2022-10-16T10:18:16;99683.47;;;20.56;92.41
51321;BME280;38732;49.556;6.286;2022-10-16T10:20:45;99691.34;;;20.56;93.93
51321;BME280;38732;49.556;6.286;2022-10-16T10:23:21;99683.78;;;20.46;94.44
51321;BME280;38732;49.556;6.286;2022-10-16T10:25:57;99685.63;;;20.44;94.59
51321;BME280;38732;49.556;6.286;2022-10-16T10:31:41;99692.00;;;20.37;95.54
51321;BME280;38732;49.556;6.286;2022-10-16T10:37:02;99696.44;;;20.35;95.40
51321;BME280;38732;49.556;6.286;2022-10-16T10:39:43;99694.72;;;20.34;93.55
51321;BME280;38732;49.556;6.286;2022-10-16T10:42:22;99710.25;;;20.40;93.89
51321;BME280;38732;49.556;6.286;2022-10-16T10:45:13;99706.59;;;20.44;94.77
51321;BME280;38732;49.556;6.286;2022-10-16T10:50:33;99703.22;;;20.41;95.43
51321;BME280;38732;49.556;6.286;2022-10-16T11:07:27;99701.59;;;20.85;91.42
51321;BME280;38732;49.556;6.286;2022-10-16T11:10:05;99700.88;;;20.82;92.06
51321;BME280;38732;49.556;6.286;2022-10-16T11:12:44;99706.59;;;20.92;93.81
51321;BME280;38732;49.556;6.286;2022-10-16T11:15:17;99702.28;;;20.90;93.43
51321;BME280;38732;49.556;6.286;2022-10-16T11:18:12;99699.78;;;20.87;92.02
51321;BME280;38732;49.556;6.286;2022-10-16T11:20:52;99689.19;;;20.89;93.32
51321;BME280;38732;49.556;6.286;2022-10-16T11:23:29;99684.91;;;20.86;92.10
51321;BME280;38732;49.556;6.286;2022-10-16T11:26:02;99685.31;;;20.99;93.73
51321;BME280;38732;49.556;6.286;2022-10-16T11:31:08;99677.38;;;21.01;93.82
51321;BME280;38732;49.556;6.286;2022-10-16T11:33:42;99673.72;;;21.05;93.65
51321;BME280;38732;49.556;6.286;2022-10-16T11:36:21;99666.88;;;21.23;93.51
51321;BME280;38732;49.556;6.286;2022-10-16T11:39:19;99661.28;;;21.30;92.46
51321;BME280;38732;49.556;6.286;2022-10-16T11:49:37;99677.63;;;21.39;88.99
51321;BME280;38732;49.556;6.286;2022-10-16T11:52:24;99676.03;;;21.35;90.74
51321;BME280;38732;49.556;6.286;2022-10-16T11:54:59;99685.31;;;21.21;90.12
51321;BME280;38732;49.556;6.286;2022-10-16T11:57:33;99681.16;;;21.16;92.14
51321;BME280;38732;49.556;6.286;2022-10-16T12:03:34;99677.06;;;21.08;93.64
51321;BME280;38732;49.556;6.286;2022-10-16T12:08:33;99675.19;;;21.12;93.41
51321;BME280;38732;49.556;6.286;2022-10-16T12:14:18;99684.28;;;21.03;92.23
51321;BME280;38732;49.556;6.286;2022-10-16T12:19:21;99690.28;;;21.07;93.18
51321;BME280;38732;49.556;6.286;2022-10-16T12:21:51;99691.72;;;21.14;93.09
51321;BME280;38732;49.556;6.286;2022-10-16T12:26:51;99687.50;;;21.10;90.22
51321;BME280;38732;49.556;6.286;2022-10-16T12:31:54;99688.41;;;21.31;92.47
51321;BME280;38732;49.556;6.286;2022-10-16T12:37:13;99678.53;;;21.38;93.16
51321;BME280;38732;49.556;6.286;2022-10-16T12:39:43;99674.56;;;21.49;93.57
51321;BME280;38732;49.556;6.286;2022-10-16T12:44:49;99671.88;;;21.51;93.62
51321;BME280;38732;49.556;6.286;2022-10-16T12:49:59;99665.38;;;21.60;90.73
51321;BME280;38732;49.556;6.286;2022-10-16T12:54:56;99658.81;;;21.70;87.68
51321;BME280;38732;49.556;6.286;2022-10-16T12:58:06;99652.72;;;21.69;90.45
51321;BME280;38732;49.556;6.286;2022-10-16T13:00:57;99660.69;;;21.66;90.68
51321;BME280;38732;49.556;6.286;2022-10-16T13:06:46;99671.25;;;21.87;90.45
51321;BME280;38732;49.556;6.286;2022-10-16T13:09:31;99670.50;;;21.83;90.39
51321;BME280;38732;49.556;6.286;2022-10-16T13:12:15;99672.88;;;21.89;90.95
51321;BME280;38732;49.556;6.286;2022-10-16T13:15:24;99672.66;;;21.94;90.27
51321;BME280;38732;49.556;6.286;2022-10-16T13:18:01;99674.97;;;21.81;87.71
51321;BME280;38732;49.556;6.286;2022-10-16T13:28:46;99681.94;;;21.62;89.42
51321;BME280;38732;49.556;6.286;2022-10-16T13:31:20;99681.19;;;21.58;89.71
51321;BME280;38732;49.556;6.286;2022-10-16T13:33:56;99671.19;;;21.46;91.62
51321;BME280;38732;49.556;6.286;2022-10-16T13:42:24;99667.78;;;21.44;93.27
51321;BME280;38732;49.556;6.286;2022-10-16T13:44:55;99660.81;;;21.43;93.16
51321;BME280;38732;49.556;6.286;2022-10-16T13:47:29;99662.66;;;21.41;93.74
51321;BME280;38732;49.556;6.286;2022-10-16T13:50:11;99660.78;;;21.44;93.43
51321;BME280;38732;49.556;6.286;2022-10-16T13:52:39;99657.41;;;21.41;94.14
51321;BME280;38732;49.556;6.286;2022-10-16T13:55:16;99662.59;;;21.42;94.92
51321;BME280;38732;49.556;6.286;2022-10-16T13:57:44;99657.16;;;21.47;95.22
51321;BME280;38732;49.556;6.286;2022-10-16T14:00:21;99656.19;;;21.49;95.08
51321;BME280;38732;49.556;6.286;2022-10-16T14:02:58;99649.16;;;21.50;95.79
51321;BME280;38732;49.556;6.286;2022-10-16T14:05:28;99646.06;;;21.61;94.08
51321;BME280;38732;49.556;6.286;2022-10-16T14:07:58;99648.97;;;21.75;93.88
51321;BME280;38732;49.556;6.286;2022-10-16T14:10:31;99654.69;;;21.64;93.44
51321;BME280;38732;49.556;6.286;2022-10-16T14:13:03;99649.81;;;21.75;93.14
51321;BME280;38732;49.556;6.286;2022-10-16T14:15:34;99651.06;;;21.87;92.33
51321;BME280;38732;49.556;6.286;2022-10-16T14:18:03;99648.78;;;21.98;91.66
51321;BME280;38732;49.556;6.286;2022-10-16T14:20:33;99646.31;;;21.95;91.40
51321;BME280;38732;49.556;6.286;2022-10-16T14:23:49;99651.19;;;21.84;90.91
51321;BME280;38732;49.556;6.286;2022-10-16T14:25:52;99652.41;;;21.96;91.57
51321;BME280;38732;49.556;6.286;2022-10-16T14:28:22;99645.47;;;21.95;91.61
51321;BME280;38732;49.556;6.286;2022-10-16T14:30:56;99646.94;;;21.82;89.75
51321;BME280;38732;49.556;6.286;2022-10-16T14:36:25;99639.88;;;21.82;89.78
51321;BME280;38732;49.556;6.286;2022-10-16T14:39:01;99650.13;;;21.88;91.17
51321;BME280;38732;49.556;6.286;2022-10-16T14:41:33;99655.63;;;22.03;91.56
51321;BME280;38732;49.556;6.286;2022-10-16T14:44:04;99648.91;;;22.16;92.66
51321;BME280;38732;49.556;6.286;2022-10-16T14:46:37;99652.00;;;22.26;92.07
51321;BME280;38732;49.556;6.286;2022-10-16T14:51:38;99645.50;;;22.34;91.17
51321;BME280;38732;49.556;6.286;2022-10-16T14:54:11;99645.28;;;22.39;89.09
51321;BME280;38732;49.556;6.286;2022-10-16T14:56:47;99641.97;;;22.34;87.41
51321;BME280;38732;49.556;6.286;2022-10-16T14:59:25;99646.75;;;22.26;88.80
51321;BME280;38732;49.556;6.286;2022-10-16T15:01:56;99640.78;;;22.22;90.27
51321;BME280;38732;49.556;6.286;2022-10-16T15:04:24;99642.28;;;22.07;87.94